Weather at SW Region FAA Heliport [CLOSED]

Public forecast

Using degrees Fahrenheit for public forecast. Weather courtesy of forecast.io.

Closest aviation weather report (METAR) to SW Region FAA Heliport

Closest report is Fort Worth Meacham International Airport, 2.9 nm (5.3 km) W.

2024/07/22 22:53 (retrieved 25 minutes ago)

KFTW 222253Z 13015G23KT 10SM SCT043 SCT055 BKN070 27/21 A2995 RMK AO2 SLP133 T02720211

Closest aviation forecast (TAF) to SW Region FAA Heliport

Closest forecast is Fort Worth Meacham International Airport, 2.9 nm (5.3 km) W.

2024/07/22 21:12 Ammendment (retrieved 2 hours ago)

TAF AMD KFTW 222110Z 2221/2318 02005KT P6SM VCTS SCT035CB OVC150 FM222230 13010KT P6SM VCTS BKN040CB OVC250 FM230000 VRB06KT P6SM SCT040 BKN250 FM230200 13005KT P6SM BKN250